sensor_id;sensor_type;location;lat;lon;timestamp;pressure;altitude;pressure_sealevel;temperature;humidity
9189;BME280;34313;50.780;6.084;2023-04-10T00:02:21;100072.22;;;8.57;58.82
9189;BME280;34313;50.780;6.084;2023-04-10T00:04:46;100073.16;;;8.56;59.01
9189;BME280;34313;50.780;6.084;2023-04-10T00:07:13;100072.34;;;8.54;59.12
9189;BME280;34313;50.780;6.084;2023-04-10T00:09:38;100063.50;;;8.56;58.57
9189;BME280;34313;50.780;6.084;2023-04-10T00:12:04;100067.28;;;8.49;59.04
9189;BME280;34313;50.780;6.084;2023-04-10T00:14:30;100061.78;;;8.55;58.80
9189;BME280;34313;50.780;6.084;2023-04-10T00:16:55;100057.84;;;8.65;58.30
9189;BME280;34313;50.780;6.084;2023-04-10T00:19:21;100056.53;;;8.55;58.61
9189;BME280;34313;50.780;6.084;2023-04-10T00:21:46;100049.44;;;8.57;58.98
9189;BME280;34313;50.780;6.084;2023-04-10T00:24:12;100050.25;;;8.59;58.70
9189;BME280;34313;50.780;6.084;2023-04-10T00:26:37;100050.97;;;8.63;58.50
9189;BME280;34313;50.780;6.084;2023-04-10T00:29:02;100040.63;;;8.58;58.51
9189;BME280;34313;50.780;6.084;2023-04-10T00:31:29;100047.56;;;8.61;58.69
9189;BME280;34313;50.780;6.084;2023-04-10T00:33:54;100044.13;;;8.59;58.72
9189;BME280;34313;50.780;6.084;2023-04-10T00:36:20;100045.78;;;8.61;58.71
9189;BME280;34313;50.780;6.084;2023-04-10T00:38:47;100043.88;;;8.65;58.53
9189;BME280;34313;50.780;6.084;2023-04-10T00:41:14;100034.22;;;8.65;58.50
9189;BME280;34313;50.780;6.084;2023-04-10T00:43:40;100029.63;;;8.70;58.30
9189;BME280;34313;50.780;6.084;2023-04-10T00:46:05;100018.44;;;8.65;58.36
9189;BME280;34313;50.780;6.084;2023-04-10T00:48:31;100016.09;;;8.59;58.93
9189;BME280;34313;50.780;6.084;2023-04-10T00:50:57;100013.06;;;8.68;58.37
9189;BME280;34313;50.780;6.084;2023-04-10T00:53:22;99992.56;;;8.77;58.04
9189;BME280;34313;50.780;6.084;2023-04-10T00:55:48;99994.66;;;8.68;58.54
9189;BME280;34313;50.780;6.084;2023-04-10T00:58:14;99993.53;;;8.74;58.23
9189;BME280;34313;50.780;6.084;2023-04-10T01:00:40;99982.66;;;8.63;58.72
9189;BME280;34313;50.780;6.084;2023-04-10T01:03:07;99981.00;;;8.60;58.69
9189;BME280;34313;50.780;6.084;2023-04-10T01:05:51;99988.47;;;8.69;58.18
9189;BME280;34313;50.780;6.084;2023-04-10T01:08:35;99986.25;;;8.60;58.72
9189;BME280;34313;50.780;6.084;2023-04-10T01:11:23;99980.03;;;8.63;58.23
9189;BME280;34313;50.780;6.084;2023-04-10T01:16:34;99965.34;;;8.57;58.56
9189;BME280;34313;50.780;6.084;2023-04-10T01:21:35;99970.22;;;8.46;59.07
9189;BME280;34313;50.780;6.084;2023-04-10T01:24:13;99970.09;;;8.49;58.81
9189;BME280;34313;50.780;6.084;2023-04-10T01:29:21;99952.56;;;8.27;59.48
9189;BME280;34313;50.780;6.084;2023-04-10T01:31:53;99946.06;;;8.36;59.42
9189;BME280;34313;50.780;6.084;2023-04-10T01:34:29;99949.44;;;8.40;59.13
9189;BME280;34313;50.780;6.084;2023-04-10T01:37:00;99951.53;;;8.31;59.56
9189;BME280;34313;50.780;6.084;2023-04-10T01:39:27;99953.56;;;8.25;59.82
9189;BME280;34313;50.780;6.084;2023-04-10T01:41:55;99947.69;;;8.18;60.09
9189;BME280;34313;50.780;6.084;2023-04-10T01:44:24;99937.25;;;8.17;60.19
9189;BME280;34313;50.780;6.084;2023-04-10T01:46:53;99946.91;;;8.16;60.36
9189;BME280;34313;50.780;6.084;2023-04-10T01:49:20;99935.50;;;8.17;60.36
9189;BME280;34313;50.780;6.084;2023-04-10T01:51:46;99945.13;;;8.17;60.11
9189;BME280;34313;50.780;6.084;2023-04-10T01:54:12;99940.81;;;8.16;60.01
9189;BME280;34313;50.780;6.084;2023-04-10T01:56:38;99939.38;;;8.29;59.97
9189;BME280;34313;50.780;6.084;2023-04-10T01:59:05;99948.41;;;8.22;59.80
9189;BME280;34313;50.780;6.084;2023-04-10T02:01:30;99945.69;;;8.25;59.55
9189;BME280;34313;50.780;6.084;2023-04-10T02:03:57;99948.53;;;8.19;59.84
9189;BME280;34313;50.780;6.084;2023-04-10T02:12:08;99941.31;;;8.24;59.35
9189;BME280;34313;50.780;6.084;2023-04-10T02:14:40;99937.53;;;8.10;60.01
9189;BME280;34313;50.780;6.084;2023-04-10T02:17:07;99943.78;;;8.28;59.36
9189;BME280;34313;50.780;6.084;2023-04-10T02:19:34;99940.03;;;8.13;59.73
9189;BME280;34313;50.780;6.084;2023-04-10T02:21:59;99938.81;;;8.00;60.16
9189;BME280;34313;50.780;6.084;2023-04-10T02:24:25;99940.25;;;8.07;60.30
9189;BME280;34313;50.780;6.084;2023-04-10T02:26:52;99932.56;;;8.03;60.31
9189;BME280;34313;50.780;6.084;2023-04-10T02:29:18;99934.41;;;8.01;60.47
9189;BME280;34313;50.780;6.084;2023-04-10T02:31:44;99937.28;;;7.94;60.71
9189;BME280;34313;50.780;6.084;2023-04-10T02:34:10;99935.91;;;7.86;61.06
9189;BME280;34313;50.780;6.084;2023-04-10T02:36:37;99933.50;;;7.80;61.40
9189;BME280;34313;50.780;6.084;2023-04-10T02:39:03;99930.16;;;7.76;61.64
9189;BME280;34313;50.780;6.084;2023-04-10T02:41:28;99926.72;;;7.74;61.54
9189;BME280;34313;50.780;6.084;2023-04-10T02:43:54;99921.09;;;7.83;61.53
9189;BME280;34313;50.780;6.084;2023-04-10T02:46:19;99923.50;;;7.89;61.13
9189;BME280;34313;50.780;6.084;2023-04-10T02:48:45;99920.19;;;7.84;61.25
9189;BME280;34313;50.780;6.084;2023-04-10T02:51:10;99915.19;;;7.78;61.46
9189;BME280;34313;50.780;6.084;2023-04-10T02:53:35;99912.94;;;7.69;61.69
9189;BME280;34313;50.780;6.084;2023-04-10T02:56:01;99903.66;;;7.60;62.14
9189;BME280;34313;50.780;6.084;2023-04-10T02:58:27;99905.50;;;7.58;62.45
9189;BME280;34313;50.780;6.084;2023-04-10T03:00:54;99907.22;;;7.59;63.05
9189;BME280;34313;50.780;6.084;2023-04-10T03:03:20;99902.38;;;7.48;63.34
9189;BME280;34313;50.780;6.084;2023-04-10T03:05:46;99896.53;;;7.42;63.42
9189;BME280;34313;50.780;6.084;2023-04-10T03:08:13;99891.56;;;7.34;63.75
9189;BME280;34313;50.780;6.084;2023-04-10T03:10:38;99891.88;;;7.26;64.07
9189;BME280;34313;50.780;6.084;2023-04-10T03:13:03;99892.03;;;7.22;64.41
9189;BME280;34313;50.780;6.084;2023-04-10T03:15:29;99889.53;;;7.18;64.84
9189;BME280;34313;50.780;6.084;2023-04-10T03:17:55;99888.75;;;7.16;65.02
9189;BME280;34313;50.780;6.084;2023-04-10T03:20:20;99883.75;;;7.10;65.07
9189;BME280;34313;50.780;6.084;2023-04-10T03:22:46;99885.44;;;7.11;65.53
9189;BME280;34313;50.780;6.084;2023-04-10T03:25:11;99879.72;;;7.02;66.32
9189;BME280;34313;50.780;6.084;2023-04-10T03:27:37;99877.97;;;7.00;66.11
9189;BME280;34313;50.780;6.084;2023-04-10T03:30:03;99875.59;;;6.94;66.67
9189;BME280;34313;50.780;6.084;2023-04-10T03:32:28;99876.41;;;6.96;66.65
9189;BME280;34313;50.780;6.084;2023-04-10T03:34:56;99883.63;;;6.90;67.15
9189;BME280;34313;50.780;6.084;2023-04-10T03:37:21;99875.03;;;6.86;67.17
9189;BME280;34313;50.780;6.084;2023-04-10T03:39:47;99873.44;;;6.82;67.76
9189;BME280;34313;50.780;6.084;2023-04-10T03:42:12;99873.56;;;6.79;68.05
9189;BME280;34313;50.780;6.084;2023-04-10T03:44:37;99868.53;;;6.73;69.04
9189;BME280;34313;50.780;6.084;2023-04-10T03:47:03;99869.50;;;6.70;69.12
9189;BME280;34313;50.780;6.084;2023-04-10T03:49:28;99865.22;;;6.68;69.20
9189;BME280;34313;50.780;6.084;2023-04-10T03:51:53;99860.56;;;6.76;69.06
9189;BME280;34313;50.780;6.084;2023-04-10T03:54:18;99854.91;;;6.63;69.30
9189;BME280;34313;50.780;6.084;2023-04-10T03:56:44;99852.47;;;6.58;69.75
9189;BME280;34313;50.780;6.084;2023-04-10T03:59:09;99851.72;;;6.55;70.58
9189;BME280;34313;50.780;6.084;2023-04-10T04:01:34;99853.69;;;6.48;71.22
9189;BME280;34313;50.780;6.084;2023-04-10T04:04:00;99844.75;;;6.54;70.64
9189;BME280;34313;50.780;6.084;2023-04-10T04:06:25;99847.50;;;6.51;71.23
9189;BME280;34313;50.780;6.084;2023-04-10T04:08:51;99839.84;;;6.44;71.45
9189;BME280;34313;50.780;6.084;2023-04-10T04:11:16;99839.00;;;6.44;71.34
9189;BME280;34313;50.780;6.084;2023-04-10T04:13:42;99834.03;;;6.61;69.93
9189;BME280;34313;50.780;6.084;2023-04-10T04:16:08;99828.22;;;6.77;68.71
9189;BME280;34313;50.780;6.084;2023-04-10T04:18:33;99820.84;;;6.87;67.90
9189;BME280;34313;50.780;6.084;2023-04-10T04:20:58;99830.06;;;6.97;67.06
9189;BME280;34313;50.780;6.084;2023-04-10T04:23:24;99835.78;;;7.08;65.84
9189;BME280;34313;50.780;6.084;2023-04-10T04:25:49;99830.38;;;7.11;65.45
9189;BME280;34313;50.780;6.084;2023-04-10T04:28:17;99823.13;;;6.96;65.98
9189;BME280;34313;50.780;6.084;2023-04-10T04:30:42;99833.47;;;6.99;65.98
9189;BME280;34313;50.780;6.084;2023-04-10T04:33:07;99835.16;;;7.02;65.95
9189;BME280;34313;50.780;6.084;2023-04-10T04:35:33;99837.53;;;7.08;65.86
9189;BME280;34313;50.780;6.084;2023-04-10T04:37:58;99834.25;;;7.25;64.20
9189;BME280;34313;50.780;6.084;2023-04-10T04:40:23;99828.84;;;7.29;63.71
9189;BME280;34313;50.780;6.084;2023-04-10T04:42:48;99835.84;;;7.29;63.65
9189;BME280;34313;50.780;6.084;2023-04-10T04:45:14;99824.34;;;7.53;62.45
9189;BME280;34313;50.780;6.084;2023-04-10T04:47:39;99827.91;;;7.52;62.58
9189;BME280;34313;50.780;6.084;2023-04-10T04:50:05;99831.38;;;7.53;62.45
9189;BME280;34313;50.780;6.084;2023-04-10T04:52:30;99827.03;;;7.52;62.39
9189;BME280;34313;50.780;6.084;2023-04-10T04:54:56;99818.44;;;7.48;62.65
9189;BME280;34313;50.780;6.084;2023-04-10T04:57:21;99814.75;;;7.54;62.61
9189;BME280;34313;50.780;6.084;2023-04-10T04:59:47;99820.44;;;7.64;62.54
9189;BME280;34313;50.780;6.084;2023-04-10T05:02:12;99817.03;;;7.62;62.49
9189;BME280;34313;50.780;6.084;2023-04-10T05:04:37;99813.91;;;7.74;61.85
9189;BME280;34313;50.780;6.084;2023-04-10T05:07:02;99821.78;;;7.74;62.20
9189;BME280;34313;50.780;6.084;2023-04-10T05:09:28;99821.00;;;7.72;62.10
9189;BME280;34313;50.780;6.084;2023-04-10T05:11:53;99822.25;;;7.84;61.58
9189;BME280;34313;50.780;6.084;2023-04-10T05:14:19;99825.47;;;7.90;61.66
9189;BME280;34313;50.780;6.084;2023-04-10T05:16:46;99823.63;;;8.13;60.80
9189;BME280;34313;50.780;6.084;2023-04-10T05:19:11;99827.31;;;8.29;60.17
9189;BME280;34313;50.780;6.084;2023-04-10T05:21:36;99832.94;;;8.61;59.20
9189;BME280;34313;50.780;6.084;2023-04-10T05:24:02;99838.13;;;9.01;57.91
9189;BME280;34313;50.780;6.084;2023-04-10T05:26:27;99827.66;;;9.91;55.71
9189;BME280;34313;50.780;6.084;2023-04-10T05:28:52;99819.81;;;11.39;51.63
9189;BME280;34313;50.780;6.084;2023-04-10T05:31:18;99809.94;;;12.34;48.48
9189;BME280;34313;50.780;6.084;2023-04-10T05:33:43;99813.63;;;12.74;46.85
9189;BME280;34313;50.780;6.084;2023-04-10T05:36:09;99807.88;;;12.82;46.77
9189;BME280;34313;50.780;6.084;2023-04-10T05:38:35;99811.66;;;13.19;45.67
9189;BME280;34313;50.780;6.084;2023-04-10T05:41:00;99800.38;;;13.03;45.37
9189;BME280;34313;50.780;6.084;2023-04-10T05:43:25;99803.06;;;12.89;46.01
9189;BME280;34313;50.780;6.084;2023-04-10T05:45:51;99796.38;;;12.54;46.38
9189;BME280;34313;50.780;6.084;2023-04-10T05:48:16;99801.56;;;12.56;46.12
9189;BME280;34313;50.780;6.084;2023-04-10T05:50:41;99797.75;;;12.74;46.19
9189;BME280;34313;50.780;6.084;2023-04-10T05:53:11;99793.75;;;13.10;45.57
9189;BME280;34313;50.780;6.084;2023-04-10T05:55:37;99792.75;;;13.26;44.92
9189;BME280;34313;50.780;6.084;2023-04-10T05:58:02;99783.00;;;13.40;44.45
9189;BME280;34313;50.780;6.084;2023-04-10T06:00:28;99781.78;;;13.32;44.35
9189;BME280;34313;50.780;6.084;2023-04-10T06:02:53;99778.09;;;13.74;43.87
9189;BME280;34313;50.780;6.084;2023-04-10T06:05:18;99772.00;;;13.87;43.21
9189;BME280;34313;50.780;6.084;2023-04-10T06:07:43;99775.19;;;14.05;43.00
9189;BME280;34313;50.780;6.084;2023-04-10T06:10:09;99784.63;;;14.47;42.50
9189;BME280;34313;50.780;6.084;2023-04-10T06:12:34;99785.78;;;14.69;42.03
9189;BME280;34313;50.780;6.084;2023-04-10T06:15:00;99789.84;;;14.99;41.31
9189;BME280;34313;50.780;6.084;2023-04-10T06:17:25;99780.50;;;15.30;40.63
9189;BME280;34313;50.780;6.084;2023-04-10T06:19:52;99785.66;;;15.20;40.61
9189;BME280;34313;50.780;6.084;2023-04-10T06:22:17;99775.81;;;15.58;39.49
9189;BME280;34313;50.780;6.084;2023-04-10T06:24:43;99777.63;;;15.33;40.20
9189;BME280;34313;50.780;6.084;2023-04-10T06:27:08;99774.38;;;15.65;39.45
9189;BME280;34313;50.780;6.084;2023-04-10T06:29:34;99775.88;;;15.69;39.48
9189;BME280;34313;50.780;6.084;2023-04-10T06:31:59;99781.25;;;15.56;39.44
9189;BME280;34313;50.780;6.084;2023-04-10T06:34:25;99767.16;;;15.67;39.55
9189;BME280;34313;50.780;6.084;2023-04-10T06:36:50;99780.50;;;15.54;39.38
9189;BME280;34313;50.780;6.084;2023-04-10T06:39:16;99769.56;;;15.59;39.51
9189;BME280;34313;50.780;6.084;2023-04-10T06:41:41;99778.06;;;15.51;39.61
9189;BME280;34313;50.780;6.084;2023-04-10T06:44:07;99773.09;;;14.98;40.11
9189;BME280;34313;50.780;6.084;2023-04-10T06:46:32;99786.28;;;15.24;40.33
9189;BME280;34313;50.780;6.084;2023-04-10T06:48:57;99781.03;;;15.35;39.97
9189;BME280;34313;50.780;6.084;2023-04-10T06:51:23;99790.28;;;15.54;39.43
9189;BME280;34313;50.780;6.084;2023-04-10T06:53:48;99785.50;;;15.59;39.65
9189;BME280;34313;50.780;6.084;2023-04-10T06:56:13;99781.34;;;15.79;39.06
9189;BME280;34313;50.780;6.084;2023-04-10T06:58:38;99782.91;;;16.28;38.38
9189;BME280;34313;50.780;6.084;2023-04-10T07:01:05;99781.13;;;16.62;37.83
9189;BME280;34313;50.780;6.084;2023-04-10T07:03:31;99779.06;;;16.55;37.77
9189;BME280;34313;50.780;6.084;2023-04-10T07:05:56;99776.88;;;16.71;37.76
9189;BME280;34313;50.780;6.084;2023-04-10T07:08:22;99765.63;;;17.45;36.75
9189;BME280;34313;50.780;6.084;2023-04-10T07:10:47;99762.81;;;17.47;36.47
9189;BME280;34313;50.780;6.084;2023-04-10T07:13:13;99760.13;;;18.21;35.26
9189;BME280;34313;50.780;6.084;2023-04-10T07:15:38;99760.16;;;18.83;34.07
9189;BME280;34313;50.780;6.084;2023-04-10T07:18:04;99752.75;;;20.03;32.92
9189;BME280;34313;50.780;6.084;2023-04-10T07:20:30;99753.22;;;19.89;31.99
9189;BME280;34313;50.780;6.084;2023-04-10T07:22:56;99752.72;;;20.61;31.33
9189;BME280;34313;50.780;6.084;2023-04-10T07:25:21;99749.28;;;21.06;30.88
9189;BME280;34313;50.780;6.084;2023-04-10T07:27:47;99749.19;;;21.15;30.80
9189;BME280;34313;50.780;6.084;2023-04-10T07:30:12;99737.50;;;21.70;29.71
9189;BME280;34313;50.780;6.084;2023-04-10T07:32:38;99734.25;;;21.85;29.75
9189;BME280;34313;50.780;6.084;2023-04-10T07:35:04;99726.22;;;22.11;29.24
9189;BME280;34313;50.780;6.084;2023-04-10T07:37:30;99725.34;;;22.28;29.07
9189;BME280;34313;50.780;6.084;2023-04-10T07:39:55;99730.97;;;22.94;28.30
9189;BME280;34313;50.780;6.084;2023-04-10T07:42:21;99727.56;;;22.84;27.83
9189;BME280;34313;50.780;6.084;2023-04-10T07:44:47;99723.31;;;22.65;28.22
9189;BME280;34313;50.780;6.084;2023-04-10T07:47:13;99725.09;;;22.22;28.35
9189;BME280;34313;50.780;6.084;2023-04-10T07:49:38;99734.63;;;21.90;28.84
9189;BME280;34313;50.780;6.084;2023-04-10T07:52:03;99726.94;;;21.51;29.45
9189;BME280;34313;50.780;6.084;2023-04-10T07:54:32;99725.22;;;21.68;29.27
9189;BME280;34313;50.780;6.084;2023-04-10T07:56:58;99713.38;;;21.97;28.95
9189;BME280;34313;50.780;6.084;2023-04-10T07:59:23;99710.78;;;21.25;29.80
9189;BME280;34313;50.780;6.084;2023-04-10T08:01:49;99718.88;;;20.97;30.00
9189;BME280;34313;50.780;6.084;2023-04-10T08:04:14;99713.44;;;21.25;29.80
9189;BME280;34313;50.780;6.084;2023-04-10T08:06:39;99703.63;;;21.69;29.65
9189;BME280;34313;50.780;6.084;2023-04-10T08:09:05;99696.41;;;21.70;29.41
9189;BME280;34313;50.780;6.084;2023-04-10T08:11:32;99698.34;;;22.12;28.82
9189;BME280;34313;50.780;6.084;2023-04-10T08:13:59;99699.50;;;21.57;29.59
9189;BME280;34313;50.780;6.084;2023-04-10T08:16:31;99684.56;;;21.19;29.72
9189;BME280;34313;50.780;6.084;2023-04-10T08:18:58;99676.50;;;21.73;29.44
9189;BME280;34313;50.780;6.084;2023-04-10T08:21:24;99675.81;;;21.52;30.11
9189;BME280;34313;50.780;6.084;2023-04-10T08:23:56;99676.06;;;21.85;29.51
9189;BME280;34313;50.780;6.084;2023-04-10T08:26:22;99670.97;;;22.00;29.23
9189;BME280;34313;50.780;6.084;2023-04-10T08:28:49;99665.19;;;21.25;30.01
9189;BME280;34313;50.780;6.084;2023-04-10T08:31:17;99671.75;;;21.93;29.41
9189;BME280;34313;50.780;6.084;2023-04-10T08:33:42;99658.44;;;21.83;29.18
9189;BME280;34313;50.780;6.084;2023-04-10T08:36:09;99661.09;;;22.35;28.63
9189;BME280;34313;50.780;6.084;2023-04-10T08:38:34;99654.44;;;22.48;28.69
9189;BME280;34313;50.780;6.084;2023-04-10T08:40:59;99649.34;;;23.61;27.60
9189;BME280;34313;50.780;6.084;2023-04-10T08:43:25;99646.03;;;24.63;26.33
9189;BME280;34313;50.780;6.084;2023-04-10T08:45:52;99644.66;;;24.98;25.87
9189;BME280;34313;50.780;6.084;2023-04-10T08:48:18;99652.28;;;25.56;25.17
9189;BME280;34313;50.780;6.084;2023-04-10T08:50:48;99648.72;;;25.78;24.37
9189;BME280;34313;50.780;6.084;2023-04-10T08:53:14;99650.44;;;26.09;24.30
9189;BME280;34313;50.780;6.084;2023-04-10T08:55:40;99651.00;;;26.19;23.72
9189;BME280;34313;50.780;6.084;2023-04-10T08:58:06;99651.22;;;25.80;23.93
9189;BME280;34313;50.780;6.084;2023-04-10T09:00:33;99650.84;;;25.30;24.65
9189;BME280;34313;50.780;6.084;2023-04-10T09:02:59;99661.59;;;25.07;24.96
9189;BME280;34313;50.780;6.084;2023-04-10T09:05:28;99660.28;;;23.59;26.64
9189;BME280;34313;50.780;6.084;2023-04-10T09:07:53;99656.75;;;23.67;26.99
9189;BME280;34313;50.780;6.084;2023-04-10T09:10:19;99672.56;;;22.54;27.90
9189;BME280;34313;50.780;6.084;2023-04-10T09:12:45;99654.13;;;21.90;29.02
9189;BME280;34313;50.780;6.084;2023-04-10T09:15:11;99671.84;;;22.09;29.18
9189;BME280;34313;50.780;6.084;2023-04-10T09:18:03;99664.16;;;21.44;29.78
9189;BME280;34313;50.780;6.084;2023-04-10T09:20:30;99660.13;;;20.86;30.56
9189;BME280;34313;50.780;6.084;2023-04-10T09:22:55;99655.69;;;20.94;30.73
9189;BME280;34313;50.780;6.084;2023-04-10T09:28:01;99655.91;;;20.65;30.91
9189;BME280;34313;50.780;6.084;2023-04-10T09:30:39;99649.34;;;21.13;30.64
9189;BME280;34313;50.780;6.084;2023-04-10T09:33:24;99636.56;;;21.96;29.71
9189;BME280;34313;50.780;6.084;2023-04-10T09:35:56;99645.72;;;22.19;29.27
9189;BME280;34313;50.780;6.084;2023-04-10T09:38:22;99651.09;;;20.87;30.90
9189;BME280;34313;50.780;6.084;2023-04-10T09:40:48;99634.28;;;21.39;30.38
9189;BME280;34313;50.780;6.084;2023-04-10T09:45:55;99618.34;;;22.50;28.97
9189;BME280;34313;50.780;6.084;2023-04-10T09:48:22;99618.34;;;22.07;29.58
9189;BME280;34313;50.780;6.084;2023-04-10T09:50:48;99612.84;;;21.83;29.73
9189;BME280;34313;50.780;6.084;2023-04-10T09:53:15;99616.59;;;21.98;29.64
9189;BME280;34313;50.780;6.084;2023-04-10T09:55:43;99614.31;;;22.46;29.14
9189;BME280;34313;50.780;6.084;2023-04-10T09:58:09;99608.88;;;21.95;29.52
9189;BME280;34313;50.780;6.084;2023-04-10T10:00:44;99596.38;;;22.55;29.03
9189;BME280;34313;50.780;6.084;2023-04-10T10:03:12;99598.56;;;22.17;29.13
9189;BME280;34313;50.780;6.084;2023-04-10T10:05:40;99595.88;;;21.82;29.92
9189;BME280;34313;50.780;6.084;2023-04-10T10:08:08;99593.03;;;21.84;29.89
9189;BME280;34313;50.780;6.084;2023-04-10T10:10:36;99588.41;;;21.94;29.47
9189;BME280;34313;50.780;6.084;2023-04-10T10:13:03;99578.84;;;21.92;29.65
9189;BME280;34313;50.780;6.084;2023-04-10T10:15:38;99579.22;;;21.97;29.56
9189;BME280;34313;50.780;6.084;2023-04-10T10:18:21;99578.69;;;21.41;30.06
9189;BME280;34313;50.780;6.084;2023-04-10T10:20:51;99566.41;;;20.58;30.94
9189;BME280;34313;50.780;6.084;2023-04-10T10:23:18;99583.91;;;20.34;31.26
9189;BME280;34313;50.780;6.084;2023-04-10T10:25:44;99568.16;;;19.76;32.27
9189;BME280;34313;50.780;6.084;2023-04-10T10:28:12;99548.03;;;20.27;31.71
9189;BME280;34313;50.780;6.084;2023-04-10T10:30:37;99544.31;;;20.38;31.80
9189;BME280;34313;50.780;6.084;2023-04-10T10:33:06;99544.16;;;19.94;32.33
9189;BME280;34313;50.780;6.084;2023-04-10T10:35:34;99549.81;;;19.81;32.51
9189;BME280;34313;50.780;6.084;2023-04-10T10:38:01;99551.63;;;19.90;32.48
9189;BME280;34313;50.780;6.084;2023-04-10T10:41:04;99546.06;;;20.01;32.38
9189;BME280;34313;50.780;6.084;2023-04-10T10:43:37;99558.44;;;19.75;32.49
9189;BME280;34313;50.780;6.084;2023-04-10T10:46:10;99558.19;;;19.58;32.81
9189;BME280;34313;50.780;6.084;2023-04-10T10:48:36;99546.75;;;19.66;32.75
9189;BME280;34313;50.780;6.084;2023-04-10T10:51:02;99544.38;;;19.63;32.91
9189;BME280;34313;50.780;6.084;2023-04-10T10:53:42;99543.84;;;19.59;32.71
9189;BME280;34313;50.780;6.084;2023-04-10T10:58:49;99525.19;;;20.33;31.92
9189;BME280;34313;50.780;6.084;2023-04-10T11:01:15;99515.44;;;20.32;31.78
9189;BME280;34313;50.780;6.084;2023-04-10T11:03:41;99510.41;;;20.29;31.81
9189;BME280;34313;50.780;6.084;2023-04-10T11:06:10;99489.88;;;20.91;31.05
9189;BME280;34313;50.780;6.084;2023-04-10T11:11:18;99508.78;;;20.64;31.56
9189;BME280;34313;50.780;6.084;2023-04-10T11:19:04;99505.00;;;19.93;31.82
9189;BME280;34313;50.780;6.084;2023-04-10T11:21:31;99490.09;;;19.90;32.20
9189;BME280;34313;50.780;6.084;2023-04-10T11:31:54;99476.75;;;19.15;33.10
9189;BME280;34313;50.780;6.084;2023-04-10T11:34:20;99471.13;;;19.18;33.10
9189;BME280;34313;50.780;6.084;2023-04-10T11:36:46;99454.56;;;19.05;33.43
9189;BME280;34313;50.780;6.084;2023-04-10T11:39:13;99446.34;;;19.26;33.07
9189;BME280;34313;50.780;6.084;2023-04-10T11:41:50;99465.25;;;19.05;33.30
9189;BME280;34313;50.780;6.084;2023-04-10T11:44:32;99446.88;;;19.30;33.15
9189;BME280;34313;50.780;6.084;2023-04-10T11:47:03;99438.47;;;19.52;32.84
9189;BME280;34313;50.780;6.084;2023-04-10T11:49:30;99420.72;;;19.61;32.53
9189;BME280;34313;50.780;6.084;2023-04-10T11:51:56;99429.97;;;19.67;32.93
9189;BME280;34313;50.780;6.084;2023-04-10T11:54:23;99420.13;;;20.13;32.40
9189;BME280;34313;50.780;6.084;2023-04-10T11:57:00;99417.72;;;20.64;31.61
9189;BME280;34313;50.780;6.084;2023-04-10T11:59:26;99411.31;;;20.20;32.13
9189;BME280;34313;50.780;6.084;2023-04-10T12:01:54;99420.03;;;20.05;32.05
9189;BME280;34313;50.780;6.084;2023-04-10T12:04:26;99425.28;;;19.96;32.46
9189;BME280;34313;50.780;6.084;2023-04-10T12:06:55;99414.00;;;19.85;32.56
9189;BME280;34313;50.780;6.084;2023-04-10T12:09:21;99406.19;;;19.91;32.29
9189;BME280;34313;50.780;6.084;2023-04-10T12:12:00;99413.00;;;20.21;31.96
9189;BME280;34313;50.780;6.084;2023-04-10T12:14:35;99411.66;;;20.80;31.16
9189;BME280;34313;50.780;6.084;2023-04-10T12:17:02;99412.91;;;20.93;30.98
9189;BME280;34313;50.780;6.084;2023-04-10T12:19:28;99401.41;;;20.75;31.11
9189;BME280;34313;50.780;6.084;2023-04-10T12:21:55;99400.50;;;20.48;31.49
9189;BME280;34313;50.780;6.084;2023-04-10T12:24:40;99402.72;;;20.71;31.43
9189;BME280;34313;50.780;6.084;2023-04-10T12:27:14;99396.69;;;20.95;31.29
9189;BME280;34313;50.780;6.084;2023-04-10T12:29:40;99387.97;;;21.78;30.48
9189;BME280;34313;50.780;6.084;2023-04-10T12:32:07;99381.34;;;22.48;29.42
9189;BME280;34313;50.780;6.084;2023-04-10T12:34:33;99388.00;;;22.85;28.85
9189;BME280;34313;50.780;6.084;2023-04-10T12:36:58;99395.63;;;22.32;29.08
9189;BME280;34313;50.780;6.084;2023-04-10T12:39:24;99392.38;;;22.04;28.59
9189;BME280;34313;50.780;6.084;2023-04-10T12:41:49;99381.50;;;21.46;29.52
9189;BME280;34313;50.780;6.084;2023-04-10T12:44:15;99381.44;;;21.73;29.28
9189;BME280;34313;50.780;6.084;2023-04-10T12:46:41;99379.53;;;21.57;29.86
9189;BME280;34313;50.780;6.084;2023-04-10T12:49:16;99376.19;;;21.63;29.33
9189;BME280;34313;50.780;6.084;2023-04-10T12:51:44;99373.06;;;21.92;29.38
9189;BME280;34313;50.780;6.084;2023-04-10T12:54:10;99360.19;;;22.04;29.36
9189;BME280;34313;50.780;6.084;2023-04-10T12:56:43;99364.56;;;22.30;29.49
9189;BME280;34313;50.780;6.084;2023-04-10T12:59:09;99353.31;;;22.18;28.82
9189;BME280;34313;50.780;6.084;2023-04-10T13:01:37;99356.31;;;22.15;29.28
9189;BME280;34313;50.780;6.084;2023-04-10T13:04:02;99352.78;;;22.06;29.25
9189;BME280;34313;50.780;6.084;2023-04-10T13:06:28;99355.47;;;22.14;29.64
9189;BME280;34313;50.780;6.084;2023-04-10T13:08:53;99340.88;;;21.92;29.53
9189;BME280;34313;50.780;6.084;2023-04-10T13:11:20;99328.75;;;21.63;29.33
9189;BME280;34313;50.780;6.084;2023-04-10T13:13:47;99337.28;;;21.08;30.16
9189;BME280;34313;50.780;6.084;2023-04-10T13:16:12;99334.66;;;21.16;30.41
9189;BME280;34313;50.780;6.084;2023-04-10T13:18:38;99332.53;;;20.93;30.37
9189;BME280;34313;50.780;6.084;2023-04-10T13:21:03;99332.22;;;21.47;30.13
9189;BME280;34313;50.780;6.084;2023-04-10T13:23:29;99325.72;;;21.50;29.91
9189;BME280;34313;50.780;6.084;2023-04-10T13:25:54;99341.66;;;21.17;30.01
9189;BME280;34313;50.780;6.084;2023-04-10T13:28:21;99340.06;;;20.64;30.71
9189;BME280;34313;50.780;6.084;2023-04-10T13:30:46;99325.97;;;20.62;31.22
9189;BME280;34313;50.780;6.084;2023-04-10T13:33:12;99323.72;;;20.75;31.08
9189;BME280;34313;50.780;6.084;2023-04-10T13:35:37;99298.34;;;20.61;31.11
9189;BME280;34313;50.780;6.084;2023-04-10T13:38:04;99307.44;;;20.42;31.54
9189;BME280;34313;50.780;6.084;2023-04-10T13:40:29;99287.13;;;20.57;31.71
9189;BME280;34313;50.780;6.084;2023-04-10T13:42:55;99295.97;;;20.32;31.84
9189;BME280;34313;50.780;6.084;2023-04-10T13:45:20;99296.88;;;20.40;32.07
9189;BME280;34313;50.780;6.084;2023-04-10T13:47:45;99289.94;;;20.56;32.37
9189;BME280;34313;50.780;6.084;2023-04-10T13:50:11;99298.63;;;20.50;32.51
9189;BME280;34313;50.780;6.084;2023-04-10T13:52:36;99289.06;;;20.47;32.46